createdAt,value
2022-08-17T00:02:26.501Z,78.00
2022-08-17T00:04:55.497Z,78.70
2022-08-17T00:07:23.203Z,78.70
2022-08-17T00:09:50.236Z,78.20
2022-08-17T00:12:44.420Z,77.90
2022-08-17T00:15:05.778Z,78.50
2022-08-17T00:17:35.517Z,77.40
2022-08-17T00:20:03.815Z,78.30
2022-08-17T00:22:34.465Z,78.40
2022-08-17T00:25:07.373Z,78.10
2022-08-17T00:27:35.363Z,78.40
2022-08-17T00:30:03.338Z,78.00
2022-08-17T00:33:23.255Z,77.90
2022-08-17T00:35:27.841Z,76.30
2022-08-17T00:37:54.666Z,77.60
2022-08-17T00:40:21.978Z,78.00
2022-08-17T00:42:53.256Z,78.70
2022-08-17T00:45:20.533Z,76.60
2022-08-17T00:47:48.462Z,77.20
2022-08-17T00:50:19.285Z,76.50
2022-08-17T00:52:54.950Z,76.30
2022-08-17T00:55:23.848Z,76.70
2022-08-17T00:57:55.622Z,78.30
2022-08-17T01:00:29.533Z,77.90
2022-08-17T01:03:01.993Z,78.70
2022-08-17T01:05:31.691Z,79.70
2022-08-17T01:08:00.963Z,80.70
2022-08-17T01:10:59.689Z,80.60
2022-08-17T01:13:24.078Z,80.10
2022-08-17T01:16:04.515Z,81.10
2022-08-17T01:18:31.621Z,80.70
2022-08-17T01:21:04.558Z,81.00
2022-08-17T01:23:31.688Z,80.80
2022-08-17T01:26:01.817Z,80.90
2022-08-17T01:28:54.572Z,80.50
2022-08-17T01:31:21.750Z,80.60
2022-08-17T01:33:48.580Z,80.70
2022-08-17T01:36:15.445Z,81.10
2022-08-17T01:38:42.217Z,80.90
2022-08-17T01:41:13.373Z,80.80
2022-08-17T01:43:46.700Z,80.70
2022-08-17T01:46:22.336Z,80.50
2022-08-17T01:48:51.128Z,80.50
2022-08-17T01:51:19.042Z,81.20
2022-08-17T01:53:52.643Z,81.80
2022-08-17T01:56:21.211Z,82.20
2022-08-17T01:58:48.741Z,82.20
2022-08-17T02:01:21.560Z,82.20
2022-08-17T02:03:53.158Z,81.90
2022-08-17T02:06:27.115Z,82.00
2022-08-17T02:09:02.448Z,82.80
2022-08-17T02:11:33.464Z,83.10
2022-08-17T02:14:03.522Z,82.90
2022-08-17T02:16:37.592Z,83.20
2022-08-17T02:19:12.477Z,82.00
2022-08-17T02:21:40.856Z,78.80
2022-08-17T02:24:12.013Z,79.70
2022-08-17T02:26:38.926Z,79.70
2022-08-17T02:29:05.694Z,80.30
2022-08-17T02:31:32.934Z,80.90
2022-08-17T02:34:04.454Z,81.10
2022-08-17T02:36:35.497Z,82.20
2022-08-17T02:39:07.145Z,83.50
2022-08-17T02:41:34.079Z,83.50
2022-08-17T02:44:01.124Z,83.90
2022-08-17T02:46:28.578Z,84.90
2022-08-17T02:48:55.511Z,85.80
2022-08-17T02:51:22.512Z,85.10
2022-08-17T02:53:49.372Z,84.40
2022-08-17T02:56:16.403Z,84.50
2022-08-17T02:58:43.184Z,83.50
2022-08-17T03:01:10.610Z,83.70
2022-08-17T03:03:39.054Z,83.60
2022-08-17T03:06:07.763Z,84.30
2022-08-17T03:08:35.290Z,84.30
2022-08-17T03:11:02.146Z,84.10
2022-08-17T03:13:30.704Z,83.90
2022-08-17T03:15:57.544Z,83.90
2022-08-17T03:18:26.392Z,83.60
2022-08-17T03:20:56.161Z,82.30
2022-08-17T03:23:25.371Z,82.00
2022-08-17T03:25:53.795Z,82.30
2022-08-17T03:28:21.976Z,83.00
2022-08-17T03:30:51.011Z,82.60
2022-08-17T03:33:17.979Z,81.60
2022-08-17T03:35:44.887Z,80.30
2022-08-17T03:38:15.065Z,81.40
2022-08-17T03:40:56.970Z,82.80
2022-08-17T03:43:26.993Z,83.10
2022-08-17T03:46:28.423Z,84.40
2022-08-17T03:49:17.800Z,85.40
2022-08-17T03:52:03.094Z,85.30
2022-08-17T03:54:48.420Z,84.80
2022-08-17T03:57:15.206Z,84.70
2022-08-17T03:59:42.022Z,84.50
2022-08-17T04:02:17.378Z,85.50
2022-08-17T04:04:44.460Z,85.70
2022-08-17T04:07:12.757Z,85.40
2022-08-17T04:09:39.567Z,85.00
2022-08-17T04:12:06.452Z,85.30
2022-08-17T04:14:51.430Z,84.80
2022-08-17T04:17:23.230Z,85.00
2022-08-17T04:19:50.081Z,85.00
2022-08-17T04:22:30.387Z,84.80
2022-08-17T04:25:13.798Z,84.50
2022-08-17T04:27:41.100Z,84.40
2022-08-17T04:30:08.634Z,84.60
2022-08-17T04:33:19.133Z,84.00
2022-08-17T04:35:42.658Z,84.20
2022-08-17T04:38:12.806Z,84.00
2022-08-17T04:40:58.099Z,84.90
2022-08-17T04:43:27.208Z,84.10
2022-08-17T04:46:01.920Z,84.40
2022-08-17T04:48:36.420Z,84.20
2022-08-17T04:51:07.742Z,83.60
2022-08-17T04:53:34.587Z,83.70
2022-08-17T04:56:01.378Z,83.90
2022-08-17T04:58:28.284Z,83.80
2022-08-17T05:00:55.134Z,83.40
2022-08-17T05:03:21.910Z,83.10
2022-08-17T05:05:51.971Z,84.00
2022-08-17T05:08:20.176Z,84.40
2022-08-17T05:10:48.259Z,83.10
2022-08-17T05:13:21.940Z,82.70
2022-08-17T05:15:52.775Z,82.90
2022-08-17T05:18:19.522Z,83.00
2022-08-17T05:20:46.694Z,83.10
2022-08-17T05:23:17.033Z,83.20
2022-08-17T05:25:47.665Z,83.20
2022-08-17T05:28:16.171Z,82.80
2022-08-17T05:30:44.973Z,82.40
2022-08-17T05:33:27.974Z,81.80
2022-08-17T05:35:56.493Z,81.30
2022-08-17T05:38:26.450Z,81.50
2022-08-17T05:40:54.367Z,81.30
2022-08-17T05:43:24.338Z,80.60
2022-08-17T05:46:27.003Z,80.80
2022-08-17T05:48:58.299Z,80.30
2022-08-17T05:51:33.677Z,79.80
2022-08-17T05:54:24.848Z,79.90
2022-08-17T05:57:12.504Z,79.60
2022-08-17T05:59:58.356Z,79.10
2022-08-17T06:02:50.993Z,78.60
2022-08-17T06:05:27.208Z,77.70
2022-08-17T06:07:59.911Z,77.30
2022-08-17T06:10:54.535Z,77.10
2022-08-17T06:13:45.759Z,76.80
2022-08-17T06:16:33.097Z,76.50
2022-08-17T06:19:13.051Z,77.00
2022-08-17T06:21:43.380Z,76.00
2022-08-17T06:24:34.257Z,75.50
2022-08-17T06:27:41.729Z,75.40
2022-08-17T06:30:14.009Z,75.30
2022-08-17T06:32:44.765Z,74.70
2022-08-17T06:35:18.895Z,74.00
2022-08-17T06:38:36.872Z,73.60
2022-08-17T06:41:24.591Z,73.00
2022-08-17T06:44:09.938Z,72.40
2022-08-17T06:46:50.995Z,71.80
2022-08-17T06:49:55.433Z,70.90
2022-08-17T06:52:45.859Z,70.80
2022-08-17T06:55:26.246Z,70.30
2022-08-17T06:57:58.751Z,69.30
2022-08-17T07:00:36.099Z,68.60
2022-08-17T07:03:27.881Z,68.30
2022-08-17T07:06:00.880Z,67.50
2022-08-17T07:08:50.995Z,67.00
2022-08-17T07:11:26.143Z,66.50
2022-08-17T07:14:24.008Z,66.10
2022-08-17T07:16:53.462Z,65.00
2022-08-17T07:19:24.692Z,64.80
2022-08-17T07:21:51.646Z,65.40
2022-08-17T07:24:50.975Z,63.60
2022-08-17T07:27:22.136Z,62.60
2022-08-17T07:30:10.370Z,62.20
2022-08-17T07:32:50.768Z,61.90
2022-08-17T07:35:43.863Z,61.40
2022-08-17T07:38:25.107Z,60.70
2022-08-17T07:41:02.760Z,60.00
2022-08-17T07:43:47.080Z,59.70
2022-08-17T07:46:41.321Z,59.60
2022-08-17T07:49:12.526Z,58.90
2022-08-17T07:51:45.485Z,58.20
2022-08-17T07:54:15.209Z,57.30
2022-08-17T07:56:52.849Z,57.60
2022-08-17T07:59:33.468Z,56.60
2022-08-17T08:02:26.451Z,55.90
2022-08-17T08:05:08.981Z,54.70
2022-08-17T08:07:58.063Z,54.40
2022-08-17T08:10:30.723Z,54.80
2022-08-17T08:13:23.856Z,54.20
2022-08-17T08:15:54.710Z,53.20
2022-08-17T08:18:53.270Z,52.90
2022-08-17T08:21:51.212Z,51.50
2022-08-17T08:24:55.468Z,51.10
2022-08-17T08:27:42.952Z,50.30
2022-08-17T08:30:14.761Z,49.60
2022-08-17T08:33:20.174Z,49.90
2022-08-17T08:35:53.566Z,50.60
2022-08-17T08:38:28.460Z,51.20
2022-08-17T08:41:05.380Z,48.70
2022-08-17T08:43:52.199Z,48.40
2022-08-17T08:46:50.312Z,47.90
2022-08-17T08:50:04.475Z,46.60
2022-08-17T08:53:10.976Z,47.40
2022-08-17T08:56:00.327Z,46.50
2022-08-17T08:58:47.169Z,46.00
2022-08-17T09:01:26.510Z,45.50
2022-08-17T09:04:23.200Z,45.50
2022-08-17T09:07:12.263Z,44.40
2022-08-17T09:10:03.283Z,43.70
2022-08-17T09:12:45.492Z,42.80
2022-08-17T09:15:27.552Z,43.00
2022-08-17T09:21:10.159Z,41.90
2022-08-17T09:24:12.694Z,41.80
2022-08-17T09:27:00.404Z,40.20
2022-08-17T09:29:34.364Z,41.20
2022-08-17T09:32:17.613Z,40.20
2022-08-17T09:34:52.594Z,40.50
2022-08-17T09:37:43.053Z,41.10
2022-08-17T09:40:20.951Z,39.40
2022-08-17T09:43:01.358Z,38.80
2022-08-17T09:45:43.262Z,38.80
2022-08-17T09:48:18.164Z,37.30
2022-08-17T09:51:15.512Z,37.30
2022-08-17T09:53:44.716Z,37.30
2022-08-17T09:56:46.027Z,36.90
2022-08-17T09:59:27.423Z,36.40
2022-08-17T10:02:30.957Z,36.40
2022-08-17T10:05:13.269Z,36.80
2022-08-17T10:08:22.877Z,37.50
2022-08-17T10:11:08.287Z,35.90
2022-08-17T10:13:59.470Z,35.20
2022-08-17T10:16:52.143Z,35.30
2022-08-17T10:19:26.710Z,34.30
2022-08-17T10:22:34.525Z,34.80
2022-08-17T10:25:26.117Z,34.70
2022-08-17T10:28:06.052Z,34.40
2022-08-17T10:30:43.665Z,34.50
2022-08-17T10:33:27.971Z,34.20
2022-08-17T10:36:11.113Z,34.20
2022-08-17T10:38:49.446Z,32.70
2022-08-17T10:41:25.703Z,31.60
2022-08-17T10:44:38.799Z,32.00
2022-08-17T10:47:04.114Z,32.10
2022-08-17T10:49:36.354Z,31.80
2022-08-17T10:52:24.831Z,31.40
2022-08-17T10:54:51.867Z,31.50
2022-08-17T10:57:34.316Z,32.00
2022-08-17T11:00:10.332Z,30.10
2022-08-17T11:02:49.986Z,30.80
2022-08-17T11:05:43.830Z,31.10
2022-08-17T11:08:25.891Z,30.90
2022-08-17T11:11:08.668Z,29.30
2022-08-17T11:14:09.798Z,29.80
2022-08-17T11:16:57.667Z,30.10
2022-08-17T11:20:17.380Z,30.20
2022-08-17T11:23:15.122Z,30.00
2022-08-17T11:25:55.353Z,30.50
2022-08-17T11:28:24.833Z,29.80
2022-08-17T11:31:01.634Z,28.80
2022-08-17T11:33:36.751Z,28.60
2022-08-17T11:36:21.775Z,28.40
2022-08-17T11:38:58.013Z,27.70
2022-08-17T11:41:36.169Z,28.90
2022-08-17T11:44:05.824Z,29.10
2022-08-17T11:47:00.085Z,27.70
2022-08-17T11:50:06.865Z,29.30
2022-08-17T11:52:41.284Z,29.70
2022-08-17T11:55:35.682Z,27.40
2022-08-17T11:58:29.184Z,28.50
2022-08-17T12:00:58.575Z,27.20
2022-08-17T12:03:31.850Z,27.30
2022-08-17T12:06:17.790Z,27.00
2022-08-17T12:08:51.580Z,26.50
2022-08-17T12:11:56.305Z,27.30
2022-08-17T12:14:45.360Z,27.50
2022-08-17T12:17:26.483Z,28.20
2022-08-17T12:20:18.107Z,26.90
2022-08-17T12:23:09.156Z,26.30
2022-08-17T12:25:51.369Z,24.90
2022-08-17T12:28:26.589Z,24.70
2022-08-17T12:30:54.654Z,25.40
2022-08-17T12:33:25.332Z,25.00
2022-08-17T12:36:08.520Z,25.50
2022-08-17T12:38:37.920Z,25.50
2022-08-17T12:41:25.693Z,24.70
2022-08-17T12:44:04.435Z,24.90
2022-08-17T12:46:44.708Z,23.40
2022-08-17T12:49:24.643Z,23.70
2022-08-17T12:51:56.475Z,22.60
2022-08-17T12:54:38.021Z,22.80
2022-08-17T12:57:13.487Z,21.60
2022-08-17T12:59:49.965Z,21.40
2022-08-17T13:02:28.258Z,20.90
2022-08-17T13:04:58.609Z,21.30
2022-08-17T13:07:32.220Z,21.30
2022-08-17T13:09:59.148Z,20.90
2022-08-17T13:12:30.242Z,20.80
2022-08-17T13:14:57.690Z,20.90
2022-08-17T13:17:31.429Z,20.30
2022-08-17T13:19:59.062Z,21.90
2022-08-17T13:22:28.000Z,20.80
2022-08-17T13:25:00.702Z,21.40
2022-08-17T13:27:29.844Z,21.20
2022-08-17T13:30:01.101Z,21.00
2022-08-17T13:32:36.285Z,20.40
2022-08-17T13:35:32.854Z,20.20
2022-08-17T13:38:09.688Z,20.20
2022-08-17T13:40:43.546Z,20.30
2022-08-17T13:43:11.649Z,19.90
2022-08-17T13:45:45.520Z,20.50
2022-08-17T13:48:17.307Z,20.40
2022-08-17T13:50:56.452Z,21.00
2022-08-17T13:53:40.225Z,20.40
2022-08-17T13:56:38.359Z,21.10
2022-08-17T13:59:53.361Z,20.90
2022-08-17T14:02:13.159Z,21.30
2022-08-17T14:04:42.014Z,23.10
2022-08-17T14:07:08.733Z,23.40
2022-08-17T14:09:42.498Z,23.80
2022-08-17T14:12:11.305Z,25.50
2022-08-17T14:14:39.164Z,24.00
2022-08-17T14:17:06.031Z,22.20
2022-08-17T14:19:35.193Z,21.00
2022-08-17T14:22:02.773Z,21.10
2022-08-17T14:24:32.783Z,20.50
2022-08-17T14:27:03.497Z,20.50
2022-08-17T14:29:31.671Z,22.40
2022-08-17T14:32:10.776Z,23.60
2022-08-17T14:34:37.566Z,23.40
2022-08-17T14:37:04.534Z,21.60
2022-08-17T14:39:32.688Z,20.50
2022-08-17T14:42:01.032Z,20.30
2022-08-17T14:44:27.861Z,20.20
2022-08-17T14:46:54.700Z,21.40
2022-08-17T14:49:21.498Z,21.20
2022-08-17T14:51:48.370Z,21.10
2022-08-17T14:54:33.566Z,21.50
2022-08-17T14:57:25.859Z,20.70
2022-08-17T14:59:54.542Z,21.40
2022-08-17T15:02:29.348Z,21.20
2022-08-17T15:05:02.679Z,21.40
2022-08-17T15:07:30.563Z,21.50
2022-08-17T15:10:02.000Z,22.20
2022-08-17T15:12:34.580Z,23.40
2022-08-17T15:15:05.201Z,23.20
2022-08-17T15:17:43.679Z,23.40
2022-08-17T15:20:16.383Z,24.10
2022-08-17T15:22:44.188Z,24.90
2022-08-17T15:25:12.563Z,25.30
2022-08-17T15:27:40.263Z,26.20
2022-08-17T15:30:08.687Z,26.40
2022-08-17T15:32:38.096Z,26.80
2022-08-17T15:35:06.720Z,26.20
2022-08-17T15:37:33.729Z,27.00
2022-08-17T15:40:01.171Z,26.60
2022-08-17T15:42:29.288Z,27.40
2022-08-17T15:44:56.341Z,27.30
2022-08-17T15:47:24.363Z,27.60
2022-08-17T15:49:51.140Z,27.30
2022-08-17T15:52:26.786Z,26.00
2022-08-17T15:54:59.472Z,25.70
2022-08-17T15:57:27.867Z,25.20
2022-08-17T15:59:58.681Z,24.90
2022-08-17T16:03:45.712Z,24.70
2022-08-17T16:05:24.866Z,26.10
2022-08-17T16:07:52.604Z,25.90
2022-08-17T16:10:19.827Z,28.40
2022-08-17T16:12:48.362Z,28.40
2022-08-17T16:15:16.195Z,26.40
2022-08-17T16:17:43.360Z,28.20
2022-08-17T16:20:19.939Z,28.20
2022-08-17T16:22:48.970Z,28.30
2022-08-17T16:25:52.515Z,29.10
2022-08-17T16:28:11.758Z,29.90
2022-08-17T16:30:38.828Z,30.90
2022-08-17T16:33:05.681Z,30.50
2022-08-17T16:35:32.674Z,30.70
2022-08-17T16:37:59.444Z,30.20
2022-08-17T16:40:28.632Z,31.40
2022-08-17T16:42:56.100Z,31.70
2022-08-17T16:45:31.369Z,32.10
2022-08-17T16:48:01.559Z,31.60
2022-08-17T16:50:28.463Z,32.60
2022-08-17T16:53:07.523Z,32.50
2022-08-17T16:55:37.611Z,35.10
2022-08-17T16:58:06.572Z,36.90
2022-08-17T17:00:34.449Z,36.30
2022-08-17T17:03:19.918Z,36.40
2022-08-17T17:06:24.474Z,36.50
2022-08-17T17:09:10.648Z,38.60
2022-08-17T17:11:43.240Z,38.30
2022-08-17T17:14:24.505Z,37.60
2022-08-17T17:17:08.061Z,36.50
2022-08-17T17:20:02.856Z,37.90
2022-08-17T17:22:41.905Z,38.70
2022-08-17T17:25:24.003Z,38.30
2022-08-17T17:28:15.933Z,39.10
2022-08-17T17:31:02.062Z,40.40
2022-08-17T17:33:40.396Z,41.80
2022-08-17T17:36:25.987Z,42.70
2022-08-17T17:38:59.160Z,40.70
2022-08-17T17:41:51.158Z,44.10
2022-08-17T17:44:22.717Z,42.50
2022-08-17T17:46:55.144Z,41.80
2022-08-17T17:49:23.262Z,42.10
2022-08-17T17:52:10.030Z,41.90
2022-08-17T17:54:42.085Z,42.20
2022-08-17T17:57:36.044Z,42.50
2022-08-17T18:00:25.060Z,43.60
2022-08-17T18:03:21.899Z,43.40
2022-08-17T18:05:48.895Z,43.00
2022-08-17T18:08:34.748Z,43.60
2022-08-17T18:11:07.744Z,44.50
2022-08-17T18:13:56.279Z,45.40
2022-08-17T18:16:23.466Z,45.30
2022-08-17T18:18:52.267Z,44.40
2022-08-17T18:21:35.575Z,43.50
2022-08-17T18:24:05.319Z,44.60
2022-08-17T18:26:45.141Z,44.80
2022-08-17T18:29:24.138Z,44.50
2022-08-17T18:32:14.925Z,43.80
2022-08-17T18:34:47.716Z,44.30
2022-08-17T18:37:35.080Z,46.20
2022-08-17T18:40:17.263Z,47.40
2022-08-17T18:42:46.723Z,47.90
2022-08-17T18:45:30.135Z,47.00
2022-08-17T18:47:57.008Z,44.60
2022-08-17T18:50:33.922Z,47.20
2022-08-17T18:53:26.489Z,48.50
2022-08-17T18:56:27.450Z,49.70
2022-08-17T18:59:12.228Z,49.00
2022-08-17T19:01:58.181Z,49.60
2022-08-17T19:04:34.522Z,50.00
2022-08-17T19:07:25.014Z,49.30
2022-08-17T19:09:54.567Z,50.70
2022-08-17T19:12:43.568Z,52.80
2022-08-17T19:15:13.283Z,52.90
2022-08-17T19:17:51.086Z,51.70
2022-08-17T19:20:35.693Z,52.10
2022-08-17T19:23:33.342Z,52.60
2022-08-17T19:26:01.663Z,53.30
2022-08-17T19:28:54.498Z,51.40
2022-08-17T19:31:26.227Z,53.40
2022-08-17T19:33:55.092Z,51.10
2022-08-17T19:36:21.884Z,52.40
2022-08-17T19:39:20.150Z,53.70
2022-08-17T19:42:16.761Z,53.90
2022-08-17T19:44:54.787Z,53.10
2022-08-17T19:47:55.111Z,54.10
2022-08-17T19:50:49.568Z,55.00
2022-08-17T19:53:54.067Z,54.80
2022-08-17T19:56:47.101Z,56.90
2022-08-17T19:59:35.912Z,55.50
2022-08-17T20:02:25.770Z,53.70
2022-08-17T20:04:54.781Z,55.20
2022-08-17T20:07:33.624Z,55.40
2022-08-17T20:10:12.843Z,55.10
2022-08-17T20:12:43.956Z,56.40
2022-08-17T20:15:16.903Z,56.90
2022-08-17T20:17:46.685Z,53.60
2022-08-17T20:20:41.467Z,55.80
2022-08-17T20:23:33.209Z,55.40
2022-08-17T20:26:19.163Z,54.90
2022-08-17T20:29:07.032Z,54.80
2022-08-17T20:31:50.807Z,57.00
2022-08-17T20:34:33.597Z,58.00
2022-08-17T20:37:32.416Z,58.70
2022-08-17T20:39:59.190Z,60.20
2022-08-17T20:42:28.682Z,57.60
2022-08-17T20:45:19.967Z,57.50
2022-08-17T20:51:09.538Z,57.60
2022-08-17T20:53:58.330Z,60.60
2022-08-17T20:56:43.338Z,60.60
2022-08-17T20:59:24.037Z,61.70
2022-08-17T21:02:08.925Z,60.70
2022-08-17T21:04:52.250Z,61.10
2022-08-17T21:07:43.677Z,62.40
2022-08-17T21:10:13.940Z,62.10
2022-08-17T21:12:55.097Z,62.60
2022-08-17T21:15:30.996Z,60.90
2022-08-17T21:18:25.892Z,61.20
2022-08-17T21:21:17.787Z,61.00
2022-08-17T21:23:59.632Z,61.80
2022-08-17T21:26:50.307Z,63.30
2022-08-17T21:29:31.858Z,63.70
2022-08-17T21:32:02.835Z,63.60
2022-08-17T21:34:38.853Z,60.40
2022-08-17T21:37:23.664Z,58.20
2022-08-17T21:39:58.255Z,59.00
2022-08-17T21:42:32.035Z,61.00
2022-08-17T21:45:18.832Z,62.40
2022-08-17T21:48:05.229Z,62.50
2022-08-17T21:50:32.407Z,63.40
2022-08-17T21:53:02.273Z,63.20
2022-08-17T21:55:32.442Z,62.50
2022-08-17T21:58:14.655Z,63.80
2022-08-17T22:00:43.272Z,64.00
2022-08-17T22:03:23.786Z,63.80
2022-08-17T22:05:51.341Z,63.20
2022-08-17T22:08:25.905Z,63.50
2022-08-17T22:11:01.903Z,63.80
2022-08-17T22:13:29.614Z,64.10
2022-08-17T22:16:15.461Z,64.20
2022-08-17T22:18:53.742Z,65.00
2022-08-17T22:21:22.610Z,64.80
2022-08-17T22:24:21.381Z,64.60
2022-08-17T22:27:11.408Z,64.40
2022-08-17T22:29:53.206Z,64.70
2022-08-17T22:32:37.893Z,64.30
2022-08-17T22:35:29.300Z,64.50
2022-08-17T22:37:57.601Z,63.30
2022-08-17T22:40:42.504Z,62.40
2022-08-17T22:43:12.875Z,63.70
2022-08-17T22:45:48.256Z,64.10
2022-08-17T22:48:22.193Z,64.70
2022-08-17T22:51:13.402Z,63.80
2022-08-17T22:54:19.057Z,63.90
2022-08-17T22:57:20.984Z,65.30
2022-08-17T22:59:51.431Z,65.80
2022-08-17T23:02:30.652Z,65.30
2022-08-17T23:05:18.853Z,66.00
2022-08-17T23:07:47.282Z,66.30
2022-08-17T23:10:14.253Z,63.40
2022-08-17T23:12:41.143Z,64.30
2022-08-17T23:15:15.384Z,65.00
2022-08-17T23:17:42.619Z,62.90
2022-08-17T23:20:15.008Z,63.90
2022-08-17T23:22:51.710Z,64.60
2022-08-17T23:25:29.491Z,64.30
2022-08-17T23:27:57.596Z,64.10
2022-08-17T23:30:25.687Z,64.70
2022-08-17T23:32:56.488Z,65.40
2022-08-17T23:35:40.296Z,65.30
2022-08-17T23:38:12.830Z,65.30
2022-08-17T23:40:40.520Z,65.20
2022-08-17T23:43:23.732Z,65.80
2022-08-17T23:45:58.487Z,66.00
2022-08-17T23:48:36.224Z,66.40
2022-08-17T23:51:06.014Z,66.80
2022-08-17T23:53:36.687Z,66.60
2022-08-17T23:56:10.209Z,68.00
2022-08-17T23:58:40.170Z,68.40
